sensor_id;sensor_type;location;lat;lon;timestamp;P1;durP1;ratioP1;P2;durP2;ratioP2
2488;SDS011;1255;48.716;9.124;2023-11-19T00:02:16;1.95;;;1.75;;
2488;SDS011;1255;48.716;9.124;2023-11-19T00:04:43;1.73;;;1.55;;
2488;SDS011;1255;48.716;9.124;2023-11-19T00:07:10;1.95;;;1.70;;
2488;SDS011;1255;48.716;9.124;2023-11-19T00:09:38;2.40;;;2.15;;
2488;SDS011;1255;48.716;9.124;2023-11-19T00:12:05;2.20;;;1.88;;
2488;SDS011;1255;48.716;9.124;2023-11-19T00:14:33;1.88;;;1.55;;
2488;SDS011;1255;48.716;9.124;2023-11-19T04:33:25;0.80;;;0.70;;
2488;SDS011;1255;48.716;9.124;2023-11-19T04:35:52;0.80;;;0.70;;
2488;SDS011;1255;48.716;9.124;2023-11-19T04:38:19;0.90;;;0.77;;
2488;SDS011;1255;48.716;9.124;2023-11-19T04:40:46;0.77;;;0.70;;
2488;SDS011;1255;48.716;9.124;2023-11-19T04:43:13;0.70;;;0.60;;
2488;SDS011;1255;48.716;9.124;2023-11-19T04:45:40;0.80;;;0.70;;
2488;SDS011;1255;48.716;9.124;2023-11-19T04:48:07;0.70;;;0.60;;
2488;SDS011;1255;48.716;9.124;2023-11-19T04:50:36;1.10;;;0.80;;
2488;SDS011;1255;48.716;9.124;2023-11-19T04:53:03;0.70;;;0.63;;
2488;SDS011;1255;48.716;9.124;2023-11-19T04:55:30;0.80;;;0.70;;
2488;SDS011;1255;48.716;9.124;2023-11-19T04:57:57;0.80;;;0.80;;
2488;SDS011;1255;48.716;9.124;2023-11-19T05:00:24;0.70;;;0.60;;
2488;SDS011;1255;48.716;9.124;2023-11-19T05:02:51;0.75;;;0.70;;
2488;SDS011;1255;48.716;9.124;2023-11-19T05:05:18;0.98;;;0.70;;
2488;SDS011;1255;48.716;9.124;2023-11-19T05:07:46;0.70;;;0.60;;
2488;SDS011;1255;48.716;9.124;2023-11-19T05:10:13;0.90;;;0.60;;
2488;SDS011;1255;48.716;9.124;2023-11-19T05:12:40;0.93;;;0.80;;
2488;SDS011;1255;48.716;9.124;2023-11-19T05:15:07;0.80;;;0.70;;
2488;SDS011;1255;48.716;9.124;2023-11-19T05:17:36;1.00;;;0.90;;
2488;SDS011;1255;48.716;9.124;2023-11-19T05:20:02;1.00;;;0.80;;
2488;SDS011;1255;48.716;9.124;2023-11-19T05:22:30;0.70;;;0.70;;
2488;SDS011;1255;48.716;9.124;2023-11-19T05:25:01;0.80;;;0.70;;
2488;SDS011;1255;48.716;9.124;2023-11-19T05:27:31;0.70;;;0.60;;
2488;SDS011;1255;48.716;9.124;2023-11-19T05:30:00;0.80;;;0.70;;
2488;SDS011;1255;48.716;9.124;2023-11-19T05:32:40;0.70;;;0.60;;
2488;SDS011;1255;48.716;9.124;2023-11-19T05:35:08;0.70;;;0.60;;
2488;SDS011;1255;48.716;9.124;2023-11-19T05:37:35;0.70;;;0.70;;
2488;SDS011;1255;48.716;9.124;2023-11-19T05:40:03;0.70;;;0.60;;
2488;SDS011;1255;48.716;9.124;2023-11-19T05:42:39;0.70;;;0.60;;
2488;SDS011;1255;48.716;9.124;2023-11-19T05:45:06;0.80;;;0.73;;
2488;SDS011;1255;48.716;9.124;2023-11-19T05:47:34;0.80;;;0.70;;
2488;SDS011;1255;48.716;9.124;2023-11-19T05:50:01;0.80;;;0.70;;
2488;SDS011;1255;48.716;9.124;2023-11-19T05:52:28;0.70;;;0.60;;
2488;SDS011;1255;48.716;9.124;2023-11-19T05:54:58;0.70;;;0.60;;
2488;SDS011;1255;48.716;9.124;2023-11-19T05:57:28;1.98;;;0.77;;
2488;SDS011;1255;48.716;9.124;2023-11-19T05:59:56;0.80;;;0.70;;
2488;SDS011;1255;48.716;9.124;2023-11-19T06:02:24;1.08;;;0.75;;
2488;SDS011;1255;48.716;9.124;2023-11-19T06:04:52;0.85;;;0.70;;
2488;SDS011;1255;48.716;9.124;2023-11-19T06:07:19;0.80;;;0.70;;
2488;SDS011;1255;48.716;9.124;2023-11-19T06:09:46;0.70;;;0.70;;
2488;SDS011;1255;48.716;9.124;2023-11-19T06:12:12;2.25;;;1.05;;
2488;SDS011;1255;48.716;9.124;2023-11-19T06:14:41;0.90;;;0.80;;
2488;SDS011;1255;48.716;9.124;2023-11-19T06:17:07;0.70;;;0.63;;
2488;SDS011;1255;48.716;9.124;2023-11-19T06:19:36;0.70;;;0.70;;
2488;SDS011;1255;48.716;9.124;2023-11-19T06:22:03;1.00;;;0.90;;
2488;SDS011;1255;48.716;9.124;2023-11-19T06:24:30;0.70;;;0.70;;
2488;SDS011;1255;48.716;9.124;2023-11-19T06:26:57;0.80;;;0.70;;
2488;SDS011;1255;48.716;9.124;2023-11-19T06:29:24;0.80;;;0.70;;
2488;SDS011;1255;48.716;9.124;2023-11-19T06:31:52;0.70;;;0.60;;
2488;SDS011;1255;48.716;9.124;2023-11-19T06:34:19;0.80;;;0.70;;
2488;SDS011;1255;48.716;9.124;2023-11-19T06:36:45;0.77;;;0.70;;
2488;SDS011;1255;48.716;9.124;2023-11-19T06:39:13;0.80;;;0.70;;
2488;SDS011;1255;48.716;9.124;2023-11-19T06:41:44;0.80;;;0.68;;
2488;SDS011;1255;48.716;9.124;2023-11-19T06:44:11;0.80;;;0.70;;
2488;SDS011;1255;48.716;9.124;2023-11-19T06:46:38;0.75;;;0.68;;
2488;SDS011;1255;48.716;9.124;2023-11-19T06:49:06;1.00;;;0.90;;
2488;SDS011;1255;48.716;9.124;2023-11-19T06:51:33;0.80;;;0.60;;
2488;SDS011;1255;48.716;9.124;2023-11-19T06:54:00;0.80;;;0.70;;
2488;SDS011;1255;48.716;9.124;2023-11-19T06:56:27;0.80;;;0.70;;
2488;SDS011;1255;48.716;9.124;2023-11-19T06:58:54;0.95;;;0.82;;
2488;SDS011;1255;48.716;9.124;2023-11-19T07:01:24;0.70;;;0.70;;
2488;SDS011;1255;48.716;9.124;2023-11-19T07:03:51;0.85;;;0.70;;
2488;SDS011;1255;48.716;9.124;2023-11-19T07:06:24;0.70;;;0.70;;
2488;SDS011;1255;48.716;9.124;2023-11-19T07:08:51;0.98;;;0.88;;
2488;SDS011;1255;48.716;9.124;2023-11-19T07:11:18;1.00;;;0.80;;
2488;SDS011;1255;48.716;9.124;2023-11-19T07:13:45;0.80;;;0.70;;
2488;SDS011;1255;48.716;9.124;2023-11-19T07:16:13;0.80;;;0.70;;
2488;SDS011;1255;48.716;9.124;2023-11-19T07:18:40;0.80;;;0.73;;
2488;SDS011;1255;48.716;9.124;2023-11-19T07:21:21;0.80;;;0.73;;
2488;SDS011;1255;48.716;9.124;2023-11-19T07:23:49;0.70;;;0.70;;
2488;SDS011;1255;48.716;9.124;2023-11-19T07:26:17;0.70;;;0.70;;
2488;SDS011;1255;48.716;9.124;2023-11-19T07:28:43;1.00;;;0.90;;
2488;SDS011;1255;48.716;9.124;2023-11-19T07:31:10;0.93;;;0.77;;
2488;SDS011;1255;48.716;9.124;2023-11-19T07:33:39;0.80;;;0.80;;
2488;SDS011;1255;48.716;9.124;2023-11-19T07:36:07;0.70;;;0.60;;
2488;SDS011;1255;48.716;9.124;2023-11-19T07:38:35;0.82;;;0.70;;
2488;SDS011;1255;48.716;9.124;2023-11-19T07:41:03;0.90;;;0.70;;
2488;SDS011;1255;48.716;9.124;2023-11-19T07:43:31;0.70;;;0.60;;
2488;SDS011;1255;48.716;9.124;2023-11-19T07:45:58;1.02;;;0.75;;
2488;SDS011;1255;48.716;9.124;2023-11-19T07:48:25;0.90;;;0.80;;
2488;SDS011;1255;48.716;9.124;2023-11-19T07:50:52;2.53;;;0.90;;
2488;SDS011;1255;48.716;9.124;2023-11-19T07:53:20;1.00;;;0.80;;
2488;SDS011;1255;48.716;9.124;2023-11-19T07:55:47;1.17;;;0.80;;
2488;SDS011;1255;48.716;9.124;2023-11-19T07:58:21;0.90;;;0.70;;
2488;SDS011;1255;48.716;9.124;2023-11-19T08:00:48;1.08;;;0.75;;
2488;SDS011;1255;48.716;9.124;2023-11-19T08:03:22;0.80;;;0.70;;
2488;SDS011;1255;48.716;9.124;2023-11-19T08:05:50;0.80;;;0.70;;
2488;SDS011;1255;48.716;9.124;2023-11-19T08:08:26;0.80;;;0.70;;
2488;SDS011;1255;48.716;9.124;2023-11-19T08:10:58;0.80;;;0.70;;
2488;SDS011;1255;48.716;9.124;2023-11-19T08:13:32;0.90;;;0.70;;
2488;SDS011;1255;48.716;9.124;2023-11-19T08:15:59;0.80;;;0.80;;
2488;SDS011;1255;48.716;9.124;2023-11-19T08:18:26;0.90;;;0.70;;
2488;SDS011;1255;48.716;9.124;2023-11-19T08:20:55;1.13;;;0.80;;
2488;SDS011;1255;48.716;9.124;2023-11-19T08:23:24;1.02;;;0.82;;
2488;SDS011;1255;48.716;9.124;2023-11-19T08:25:55;1.00;;;0.80;;
2488;SDS011;1255;48.716;9.124;2023-11-19T08:28:29;1.08;;;0.82;;
2488;SDS011;1255;48.716;9.124;2023-11-19T08:31:01;1.98;;;1.10;;
2488;SDS011;1255;48.716;9.124;2023-11-19T08:33:31;0.90;;;0.82;;
2488;SDS011;1255;48.716;9.124;2023-11-19T08:35:59;1.27;;;0.82;;
2488;SDS011;1255;48.716;9.124;2023-11-19T08:38:26;0.90;;;0.70;;
2488;SDS011;1255;48.716;9.124;2023-11-19T08:40:53;1.27;;;0.97;;
2488;SDS011;1255;48.716;9.124;2023-11-19T08:43:24;2.30;;;0.80;;
2488;SDS011;1255;48.716;9.124;2023-11-19T08:45:53;0.93;;;0.80;;
2488;SDS011;1255;48.716;9.124;2023-11-19T08:48:19;1.73;;;1.00;;
2488;SDS011;1255;48.716;9.124;2023-11-19T08:50:47;1.10;;;1.00;;
2488;SDS011;1255;48.716;9.124;2023-11-19T08:53:14;0.80;;;0.70;;
2488;SDS011;1255;48.716;9.124;2023-11-19T08:55:43;0.90;;;0.80;;
2488;SDS011;1255;48.716;9.124;2023-11-19T08:58:12;0.90;;;0.70;;
2488;SDS011;1255;48.716;9.124;2023-11-19T09:00:41;1.00;;;0.80;;
2488;SDS011;1255;48.716;9.124;2023-11-19T09:03:13;0.90;;;0.80;;
2488;SDS011;1255;48.716;9.124;2023-11-19T09:05:42;0.90;;;0.70;;
2488;SDS011;1255;48.716;9.124;2023-11-19T09:08:12;1.00;;;0.80;;
2488;SDS011;1255;48.716;9.124;2023-11-19T09:10:40;0.90;;;0.70;;
2488;SDS011;1255;48.716;9.124;2023-11-19T09:13:12;1.33;;;0.80;;
2488;SDS011;1255;48.716;9.124;2023-11-19T09:15:40;0.90;;;0.70;;
2488;SDS011;1255;48.716;9.124;2023-11-19T09:18:10;0.80;;;0.70;;
2488;SDS011;1255;48.716;9.124;2023-11-19T09:20:44;1.00;;;0.80;;
2488;SDS011;1255;48.716;9.124;2023-11-19T09:23:53;0.97;;;0.83;;
2488;SDS011;1255;48.716;9.124;2023-11-19T09:33:20;0.80;;;0.70;;
2488;SDS011;1255;48.716;9.124;2023-11-19T09:35:48;0.97;;;0.80;;
2488;SDS011;1255;48.716;9.124;2023-11-19T09:38:15;0.90;;;0.77;;
2488;SDS011;1255;48.716;9.124;2023-11-19T09:40:42;0.80;;;0.70;;
2488;SDS011;1255;48.716;9.124;2023-11-19T09:43:09;2.23;;;1.00;;
2488;SDS011;1255;48.716;9.124;2023-11-19T09:45:39;0.80;;;0.70;;
2488;SDS011;1255;48.716;9.124;2023-11-19T09:48:14;1.13;;;0.80;;
2488;SDS011;1255;48.716;9.124;2023-11-19T09:50:43;0.80;;;0.80;;
2488;SDS011;1255;48.716;9.124;2023-11-19T09:53:12;4.50;;;1.13;;
2488;SDS011;1255;48.716;9.124;2023-11-19T09:55:39;1.13;;;0.90;;
2488;SDS011;1255;48.716;9.124;2023-11-19T09:58:07;1.00;;;0.80;;
2488;SDS011;1255;48.716;9.124;2023-11-19T10:00:35;0.93;;;0.83;;
2488;SDS011;1255;48.716;9.124;2023-11-19T10:03:05;1.10;;;1.00;;
2488;SDS011;1255;48.716;9.124;2023-11-19T10:05:35;0.97;;;0.80;;
2488;SDS011;1255;48.716;9.124;2023-11-19T10:08:03;1.00;;;0.90;;
2488;SDS011;1255;48.716;9.124;2023-11-19T10:10:32;1.00;;;0.80;;
2488;SDS011;1255;48.716;9.124;2023-11-19T10:12:59;0.90;;;0.80;;
2488;SDS011;1255;48.716;9.124;2023-11-19T10:15:26;0.90;;;0.70;;
2488;SDS011;1255;48.716;9.124;2023-11-19T10:17:55;1.10;;;0.83;;
2488;SDS011;1255;48.716;9.124;2023-11-19T10:20:22;0.80;;;0.70;;
2488;SDS011;1255;48.716;9.124;2023-11-19T10:22:52;0.80;;;0.70;;
2488;SDS011;1255;48.716;9.124;2023-11-19T10:25:22;1.30;;;1.00;;
2488;SDS011;1255;48.716;9.124;2023-11-19T10:27:52;1.20;;;0.83;;
2488;SDS011;1255;48.716;9.124;2023-11-19T10:30:20;1.77;;;0.90;;
2488;SDS011;1255;48.716;9.124;2023-11-19T10:33:01;0.90;;;0.80;;
2488;SDS011;1255;48.716;9.124;2023-11-19T10:35:30;1.20;;;0.80;;
2488;SDS011;1255;48.716;9.124;2023-11-19T10:37:58;1.07;;;0.80;;
2488;SDS011;1255;48.716;9.124;2023-11-19T10:40:37;0.90;;;0.73;;
2488;SDS011;1255;48.716;9.124;2023-11-19T10:43:06;1.00;;;0.80;;
2488;SDS011;1255;48.716;9.124;2023-11-19T10:45:33;1.00;;;0.80;;
2488;SDS011;1255;48.716;9.124;2023-11-19T10:48:00;2.07;;;1.20;;
2488;SDS011;1255;48.716;9.124;2023-11-19T10:50:29;0.80;;;0.70;;
2488;SDS011;1255;48.716;9.124;2023-11-19T10:52:57;1.57;;;0.70;;
2488;SDS011;1255;48.716;9.124;2023-11-19T10:55:26;1.27;;;0.87;;
2488;SDS011;1255;48.716;9.124;2023-11-19T10:57:55;0.80;;;0.60;;
2488;SDS011;1255;48.716;9.124;2023-11-19T11:00:27;0.80;;;0.70;;
2488;SDS011;1255;48.716;9.124;2023-11-19T11:02:59;0.90;;;0.80;;
2488;SDS011;1255;48.716;9.124;2023-11-19T11:05:29;1.10;;;0.87;;
2488;SDS011;1255;48.716;9.124;2023-11-19T11:08:00;0.90;;;0.80;;
2488;SDS011;1255;48.716;9.124;2023-11-19T11:10:28;0.90;;;0.60;;
2488;SDS011;1255;48.716;9.124;2023-11-19T11:13:01;0.90;;;0.70;;
2488;SDS011;1255;48.716;9.124;2023-11-19T11:15:31;1.03;;;0.80;;
2488;SDS011;1255;48.716;9.124;2023-11-19T11:17:59;1.07;;;0.80;;
2488;SDS011;1255;48.716;9.124;2023-11-19T11:20:28;0.90;;;0.70;;
2488;SDS011;1255;48.716;9.124;2023-11-19T11:22:59;1.10;;;0.90;;
2488;SDS011;1255;48.716;9.124;2023-11-19T11:25:51;1.57;;;0.80;;
2488;SDS011;1255;48.716;9.124;2023-11-19T11:28:27;1.30;;;0.80;;
2488;SDS011;1255;48.716;9.124;2023-11-19T11:31:04;1.37;;;0.70;;
2488;SDS011;1255;48.716;9.124;2023-11-19T11:33:43;3.00;;;1.03;;
2488;SDS011;1255;48.716;9.124;2023-11-19T11:36:25;1.00;;;0.80;;
2488;SDS011;1255;48.716;9.124;2023-11-19T11:38:56;1.00;;;0.90;;
2488;SDS011;1255;48.716;9.124;2023-11-19T11:41:26;1.93;;;1.20;;
2488;SDS011;1255;48.716;9.124;2023-11-19T11:43:56;1.30;;;0.97;;
2488;SDS011;1255;48.716;9.124;2023-11-19T11:49:27;1.10;;;0.90;;
2488;SDS011;1255;48.716;9.124;2023-11-19T11:51:57;1.03;;;0.83;;
2488;SDS011;1255;48.716;9.124;2023-11-19T11:54:29;0.97;;;0.87;;
2488;SDS011;1255;48.716;9.124;2023-11-19T11:57:06;2.50;;;0.80;;
2488;SDS011;1255;48.716;9.124;2023-11-19T11:59:48;1.77;;;0.90;;
2488;SDS011;1255;48.716;9.124;2023-11-19T12:02:20;1.57;;;0.70;;
2488;SDS011;1255;48.716;9.124;2023-11-19T12:04:49;0.87;;;0.77;;
2488;SDS011;1255;48.716;9.124;2023-11-19T12:07:19;1.00;;;0.90;;
2488;SDS011;1255;48.716;9.124;2023-11-19T12:09:51;1.63;;;0.70;;
2488;SDS011;1255;48.716;9.124;2023-11-19T12:12:23;1.10;;;0.70;;
2488;SDS011;1255;48.716;9.124;2023-11-19T12:14:59;1.23;;;0.90;;
2488;SDS011;1255;48.716;9.124;2023-11-19T12:17:42;0.90;;;0.70;;
2488;SDS011;1255;48.716;9.124;2023-11-19T12:20:14;0.97;;;0.70;;
2488;SDS011;1255;48.716;9.124;2023-11-19T12:22:42;1.10;;;0.90;;
2488;SDS011;1255;48.716;9.124;2023-11-19T12:25:10;0.80;;;0.70;;
2488;SDS011;1255;48.716;9.124;2023-11-19T12:27:39;1.87;;;1.10;;
2488;SDS011;1255;48.716;9.124;2023-11-19T12:30:06;1.17;;;0.80;;
2488;SDS011;1255;48.716;9.124;2023-11-19T12:32:37;1.03;;;0.80;;
2488;SDS011;1255;48.716;9.124;2023-11-19T12:35:08;0.93;;;0.80;;
2488;SDS011;1255;48.716;9.124;2023-11-19T12:37:40;0.90;;;0.70;;
2488;SDS011;1255;48.716;9.124;2023-11-19T12:40:12;0.90;;;0.80;;
2488;SDS011;1255;48.716;9.124;2023-11-19T12:45:11;1.27;;;1.00;;
2488;SDS011;1255;48.716;9.124;2023-11-19T12:47:38;1.60;;;0.70;;
2488;SDS011;1255;48.716;9.124;2023-11-19T12:50:08;0.80;;;0.70;;
2488;SDS011;1255;48.716;9.124;2023-11-19T12:52:36;0.90;;;0.70;;
2488;SDS011;1255;48.716;9.124;2023-11-19T12:55:04;1.63;;;0.80;;
2488;SDS011;1255;48.716;9.124;2023-11-19T12:57:36;1.67;;;1.10;;
2488;SDS011;1255;48.716;9.124;2023-11-19T13:00:04;1.70;;;1.10;;
2488;SDS011;1255;48.716;9.124;2023-11-19T13:02:45;1.73;;;1.13;;
2488;SDS011;1255;48.716;9.124;2023-11-19T13:05:27;1.30;;;0.93;;
2488;SDS011;1255;48.716;9.124;2023-11-19T13:08:02;1.73;;;1.00;;
2488;SDS011;1255;48.716;9.124;2023-11-19T13:10:31;0.80;;;0.80;;
2488;SDS011;1255;48.716;9.124;2023-11-19T13:13:04;1.10;;;0.80;;
2488;SDS011;1255;48.716;9.124;2023-11-19T13:15:33;1.17;;;0.93;;
2488;SDS011;1255;48.716;9.124;2023-11-19T13:18:00;1.00;;;0.90;;
2488;SDS011;1255;48.716;9.124;2023-11-19T13:20:30;2.83;;;1.23;;
2488;SDS011;1255;48.716;9.124;2023-11-19T13:22:58;1.20;;;0.90;;
2488;SDS011;1255;48.716;9.124;2023-11-19T13:25:25;1.10;;;0.80;;
2488;SDS011;1255;48.716;9.124;2023-11-19T13:27:52;1.53;;;1.00;;
2488;SDS011;1255;48.716;9.124;2023-11-19T13:30:20;1.10;;;0.80;;
2488;SDS011;1255;48.716;9.124;2023-11-19T13:32:47;1.00;;;0.90;;
2488;SDS011;1255;48.716;9.124;2023-11-19T13:35:14;1.00;;;0.67;;
2488;SDS011;1255;48.716;9.124;2023-11-19T13:37:43;1.30;;;1.00;;
2488;SDS011;1255;48.716;9.124;2023-11-19T13:40:11;2.10;;;0.93;;
2488;SDS011;1255;48.716;9.124;2023-11-19T13:42:40;0.90;;;0.70;;
2488;SDS011;1255;48.716;9.124;2023-11-19T13:45:07;1.30;;;0.90;;
2488;SDS011;1255;48.716;9.124;2023-11-19T13:47:37;1.27;;;1.00;;
2488;SDS011;1255;48.716;9.124;2023-11-19T13:50:06;0.80;;;0.70;;
2488;SDS011;1255;48.716;9.124;2023-11-19T13:52:34;1.50;;;1.00;;
2488;SDS011;1255;48.716;9.124;2023-11-19T13:55:03;1.40;;;1.17;;
2488;SDS011;1255;48.716;9.124;2023-11-19T13:57:31;2.20;;;0.97;;
2488;SDS011;1255;48.716;9.124;2023-11-19T13:59:59;1.10;;;0.70;;
2488;SDS011;1255;48.716;9.124;2023-11-19T14:02:26;1.83;;;0.90;;
2488;SDS011;1255;48.716;9.124;2023-11-19T14:04:52;1.73;;;0.90;;
2488;SDS011;1255;48.716;9.124;2023-11-19T14:07:20;0.80;;;0.70;;
2488;SDS011;1255;48.716;9.124;2023-11-19T14:09:46;1.00;;;0.90;;
2488;SDS011;1255;48.716;9.124;2023-11-19T14:12:15;1.83;;;1.10;;
2488;SDS011;1255;48.716;9.124;2023-11-19T14:14:42;0.97;;;0.73;;
2488;SDS011;1255;48.716;9.124;2023-11-19T14:17:09;2.00;;;0.90;;
2488;SDS011;1255;48.716;9.124;2023-11-19T14:19:37;2.80;;;0.90;;
2488;SDS011;1255;48.716;9.124;2023-11-19T14:22:04;1.00;;;0.90;;
2488;SDS011;1255;48.716;9.124;2023-11-19T14:24:31;1.07;;;0.80;;
2488;SDS011;1255;48.716;9.124;2023-11-19T14:26:59;1.30;;;1.00;;
2488;SDS011;1255;48.716;9.124;2023-11-19T14:29:27;1.00;;;0.90;;
2488;SDS011;1255;48.716;9.124;2023-11-19T14:31:55;0.93;;;0.83;;
2488;SDS011;1255;48.716;9.124;2023-11-19T14:34:23;1.00;;;0.70;;
2488;SDS011;1255;48.716;9.124;2023-11-19T14:36:51;2.90;;;0.90;;
2488;SDS011;1255;48.716;9.124;2023-11-19T14:39:18;0.80;;;0.77;;
2488;SDS011;1255;48.716;9.124;2023-11-19T14:41:45;2.63;;;1.13;;
2488;SDS011;1255;48.716;9.124;2023-11-19T14:44:12;1.47;;;0.87;;
2488;SDS011;1255;48.716;9.124;2023-11-19T14:46:40;1.30;;;0.90;;
2488;SDS011;1255;48.716;9.124;2023-11-19T14:49:07;1.10;;;0.80;;
2488;SDS011;1255;48.716;9.124;2023-11-19T14:51:35;1.40;;;1.00;;
2488;SDS011;1255;48.716;9.124;2023-11-19T14:54:02;0.80;;;0.70;;
2488;SDS011;1255;48.716;9.124;2023-11-19T14:56:29;1.83;;;0.90;;
2488;SDS011;1255;48.716;9.124;2023-11-19T14:58:55;1.30;;;0.80;;
2488;SDS011;1255;48.716;9.124;2023-11-19T15:01:23;2.90;;;0.97;;
2488;SDS011;1255;48.716;9.124;2023-11-19T15:03:52;1.00;;;0.80;;
2488;SDS011;1255;48.716;9.124;2023-11-19T15:06:22;1.10;;;0.93;;
2488;SDS011;1255;48.716;9.124;2023-11-19T15:08:50;1.90;;;1.00;;
2488;SDS011;1255;48.716;9.124;2023-11-19T15:11:16;1.17;;;0.95;;
2488;SDS011;1255;48.716;9.124;2023-11-19T15:13:43;1.20;;;0.90;;
2488;SDS011;1255;48.716;9.124;2023-11-19T15:16:10;1.10;;;0.80;;
2488;SDS011;1255;48.716;9.124;2023-11-19T15:18:38;1.20;;;0.87;;
2488;SDS011;1255;48.716;9.124;2023-11-19T15:21:07;1.20;;;0.90;;
2488;SDS011;1255;48.716;9.124;2023-11-19T15:23:34;2.28;;;1.17;;
2488;SDS011;1255;48.716;9.124;2023-11-19T15:26:02;1.43;;;1.07;;
2488;SDS011;1255;48.716;9.124;2023-11-19T15:28:31;1.20;;;0.90;;
2488;SDS011;1255;48.716;9.124;2023-11-19T15:30:58;3.03;;;0.95;;
2488;SDS011;1255;48.716;9.124;2023-11-19T15:33:26;1.13;;;0.90;;
2488;SDS011;1255;48.716;9.124;2023-11-19T15:35:53;0.90;;;0.80;;
2488;SDS011;1255;48.716;9.124;2023-11-19T15:38:22;1.42;;;0.98;;
2488;SDS011;1255;48.716;9.124;2023-11-19T15:40:48;1.35;;;0.95;;
2488;SDS011;1255;48.716;9.124;2023-11-19T15:43:16;1.87;;;1.10;;
2488;SDS011;1255;48.716;9.124;2023-11-19T15:45:44;3.27;;;1.20;;
2488;SDS011;1255;48.716;9.124;2023-11-19T15:48:11;1.10;;;0.90;;
2488;SDS011;1255;48.716;9.124;2023-11-19T15:50:38;1.10;;;0.90;;
2488;SDS011;1255;48.716;9.124;2023-11-19T15:53:05;1.27;;;0.90;;
2488;SDS011;1255;48.716;9.124;2023-11-19T15:55:33;1.70;;;1.23;;
2488;SDS011;1255;48.716;9.124;2023-11-19T15:58:00;1.00;;;0.70;;
2488;SDS011;1255;48.716;9.124;2023-11-19T16:00:26;1.58;;;0.82;;
2488;SDS011;1255;48.716;9.124;2023-11-19T16:02:53;0.80;;;0.77;;
2488;SDS011;1255;48.716;9.124;2023-11-19T16:05:21;1.73;;;1.00;;
2488;SDS011;1255;48.716;9.124;2023-11-19T16:07:48;1.00;;;0.90;;
2488;SDS011;1255;48.716;9.124;2023-11-19T16:10:15;1.42;;;0.90;;
2488;SDS011;1255;48.716;9.124;2023-11-19T16:12:46;1.13;;;1.02;;
2488;SDS011;1255;48.716;9.124;2023-11-19T16:15:13;1.50;;;1.00;;
2488;SDS011;1255;48.716;9.124;2023-11-19T16:17:40;1.38;;;0.75;;
2488;SDS011;1255;48.716;9.124;2023-11-19T16:20:08;1.55;;;0.90;;
2488;SDS011;1255;48.716;9.124;2023-11-19T16:22:35;1.27;;;0.90;;
2488;SDS011;1255;48.716;9.124;2023-11-19T16:25:05;1.85;;;0.80;;
2488;SDS011;1255;48.716;9.124;2023-11-19T16:27:33;2.10;;;1.10;;
2488;SDS011;1255;48.716;9.124;2023-11-19T16:30:01;0.95;;;0.82;;
2488;SDS011;1255;48.716;9.124;2023-11-19T16:32:28;5.90;;;0.98;;
2488;SDS011;1255;48.716;9.124;2023-11-19T16:34:55;1.00;;;0.75;;
2488;SDS011;1255;48.716;9.124;2023-11-19T16:37:21;0.80;;;0.70;;
2488;SDS011;1255;48.716;9.124;2023-11-19T16:39:48;1.25;;;1.00;;
2488;SDS011;1255;48.716;9.124;2023-11-19T16:42:15;1.10;;;0.90;;
2488;SDS011;1255;48.716;9.124;2023-11-19T16:44:46;0.90;;;0.80;;
2488;SDS011;1255;48.716;9.124;2023-11-19T16:47:14;1.90;;;1.25;;
2488;SDS011;1255;48.716;9.124;2023-11-19T16:49:41;1.02;;;0.80;;
2488;SDS011;1255;48.716;9.124;2023-11-19T16:52:08;0.90;;;0.80;;
2488;SDS011;1255;48.716;9.124;2023-11-19T16:54:35;1.17;;;1.08;;
2488;SDS011;1255;48.716;9.124;2023-11-19T16:57:02;1.95;;;1.20;;
2488;SDS011;1255;48.716;9.124;2023-11-19T16:59:29;1.95;;;1.30;;
2488;SDS011;1255;48.716;9.124;2023-11-19T17:01:56;1.98;;;1.25;;
2488;SDS011;1255;48.716;9.124;2023-11-19T17:04:24;1.17;;;0.90;;
2488;SDS011;1255;48.716;9.124;2023-11-19T17:06:52;2.65;;;1.15;;
2488;SDS011;1255;48.716;9.124;2023-11-19T17:09:19;1.85;;;1.35;;
2488;SDS011;1255;48.716;9.124;2023-11-19T17:11:45;1.52;;;0.80;;
2488;SDS011;1255;48.716;9.124;2023-11-19T17:14:12;1.15;;;0.80;;
2488;SDS011;1255;48.716;9.124;2023-11-19T17:16:39;2.20;;;1.20;;
2488;SDS011;1255;48.716;9.124;2023-11-19T17:19:06;3.50;;;1.58;;
2488;SDS011;1255;48.716;9.124;2023-11-19T17:21:34;1.90;;;0.98;;
2488;SDS011;1255;48.716;9.124;2023-11-19T17:24:01;1.02;;;0.93;;
2488;SDS011;1255;48.716;9.124;2023-11-19T17:26:28;1.42;;;1.13;;
2488;SDS011;1255;48.716;9.124;2023-11-19T17:28:54;1.90;;;1.02;;
2488;SDS011;1255;48.716;9.124;2023-11-19T17:31:21;1.10;;;1.00;;
2488;SDS011;1255;48.716;9.124;2023-11-19T17:33:48;1.10;;;1.00;;
2488;SDS011;1255;48.716;9.124;2023-11-19T17:36:14;0.90;;;0.80;;
2488;SDS011;1255;48.716;9.124;2023-11-19T17:38:43;1.35;;;1.20;;
2488;SDS011;1255;48.716;9.124;2023-11-19T17:41:09;4.93;;;1.30;;
2488;SDS011;1255;48.716;9.124;2023-11-19T17:43:36;1.95;;;1.17;;
2488;SDS011;1255;48.716;9.124;2023-11-19T17:46:04;1.70;;;1.30;;
2488;SDS011;1255;48.716;9.124;2023-11-19T17:48:31;1.70;;;1.45;;
2488;SDS011;1255;48.716;9.124;2023-11-19T17:50:58;1.60;;;1.10;;
2488;SDS011;1255;48.716;9.124;2023-11-19T17:53:26;1.42;;;1.08;;
2488;SDS011;1255;48.716;9.124;2023-11-19T17:55:54;1.10;;;0.85;;
2488;SDS011;1255;48.716;9.124;2023-11-19T17:58:22;1.15;;;0.85;;
2488;SDS011;1255;48.716;9.124;2023-11-19T18:00:48;1.35;;;1.17;;
2488;SDS011;1255;48.716;9.124;2023-11-19T18:03:15;2.33;;;1.67;;
2488;SDS011;1255;48.716;9.124;2023-11-19T18:05:42;1.20;;;1.05;;
2488;SDS011;1255;48.716;9.124;2023-11-19T18:08:09;1.27;;;1.17;;
2488;SDS011;1255;48.716;9.124;2023-11-19T18:10:36;3.60;;;1.10;;
2488;SDS011;1255;48.716;9.124;2023-11-19T18:13:04;2.00;;;1.02;;
2488;SDS011;1255;48.716;9.124;2023-11-19T18:15:32;2.70;;;1.40;;
2488;SDS011;1255;48.716;9.124;2023-11-19T18:17:59;2.78;;;1.20;;
2488;SDS011;1255;48.716;9.124;2023-11-19T18:20:26;1.95;;;1.10;;
2488;SDS011;1255;48.716;9.124;2023-11-19T18:22:53;1.30;;;1.00;;
2488;SDS011;1255;48.716;9.124;2023-11-19T18:25:23;1.30;;;1.17;;
2488;SDS011;1255;48.716;9.124;2023-11-19T18:27:50;2.20;;;1.50;;
2488;SDS011;1255;48.716;9.124;2023-11-19T18:30:18;2.17;;;1.63;;
2488;SDS011;1255;48.716;9.124;2023-11-19T18:32:45;2.65;;;1.55;;
2488;SDS011;1255;48.716;9.124;2023-11-19T18:35:12;1.52;;;1.30;;
2488;SDS011;1255;48.716;9.124;2023-11-19T18:37:41;2.38;;;1.88;;
2488;SDS011;1255;48.716;9.124;2023-11-19T18:40:08;2.25;;;1.00;;
2488;SDS011;1255;48.716;9.124;2023-11-19T18:42:36;3.53;;;1.40;;
2488;SDS011;1255;48.716;9.124;2023-11-19T18:45:03;1.33;;;1.13;;
2488;SDS011;1255;48.716;9.124;2023-11-19T18:47:33;3.92;;;1.45;;
2488;SDS011;1255;48.716;9.124;2023-11-19T18:50:02;2.78;;;1.50;;
2488;SDS011;1255;48.716;9.124;2023-11-19T18:52:30;1.27;;;1.17;;
2488;SDS011;1255;48.716;9.124;2023-11-19T18:54:56;1.55;;;1.33;;
2488;SDS011;1255;48.716;9.124;2023-11-19T18:57:23;1.45;;;1.17;;
2488;SDS011;1255;48.716;9.124;2023-11-19T18:59:50;1.42;;;1.20;;
2488;SDS011;1255;48.716;9.124;2023-11-19T19:02:18;1.60;;;1.40;;
2488;SDS011;1255;48.716;9.124;2023-11-19T19:04:52;1.67;;;1.35;;
2488;SDS011;1255;48.716;9.124;2023-11-19T19:07:30;1.20;;;1.08;;
2488;SDS011;1255;48.716;9.124;2023-11-19T19:09:59;1.13;;;1.02;;
2488;SDS011;1255;48.716;9.124;2023-11-19T19:12:27;2.45;;;1.27;;
2488;SDS011;1255;48.716;9.124;2023-11-19T19:14:54;1.23;;;1.13;;
2488;SDS011;1255;48.716;9.124;2023-11-19T19:17:22;1.45;;;1.27;;
2488;SDS011;1255;48.716;9.124;2023-11-19T19:19:48;1.83;;;1.30;;
2488;SDS011;1255;48.716;9.124;2023-11-19T19:22:16;3.08;;;1.50;;
2488;SDS011;1255;48.716;9.124;2023-11-19T19:24:43;1.80;;;1.33;;
2488;SDS011;1255;48.716;9.124;2023-11-19T19:27:10;1.88;;;1.75;;
2488;SDS011;1255;48.716;9.124;2023-11-19T19:29:37;1.60;;;1.10;;
2488;SDS011;1255;48.716;9.124;2023-11-19T19:32:04;1.45;;;1.10;;
2488;SDS011;1255;48.716;9.124;2023-11-19T19:34:31;3.05;;;1.58;;
2488;SDS011;1255;48.716;9.124;2023-11-19T19:36:57;2.60;;;1.50;;
2488;SDS011;1255;48.716;9.124;2023-11-19T19:39:25;2.50;;;1.17;;
2488;SDS011;1255;48.716;9.124;2023-11-19T19:41:53;2.88;;;1.35;;
2488;SDS011;1255;48.716;9.124;2023-11-19T19:44:26;6.55;;;1.48;;
2488;SDS011;1255;48.716;9.124;2023-11-19T19:47:10;1.75;;;1.48;;
2488;SDS011;1255;48.716;9.124;2023-11-19T19:49:40;10.98;;;1.95;;
2488;SDS011;1255;48.716;9.124;2023-11-19T19:52:12;2.20;;;1.20;;
2488;SDS011;1255;48.716;9.124;2023-11-19T19:54:42;1.45;;;1.30;;